Amber, Washington
Current Conditions -  °F | °C
As of 11:58 AM on Sunday 25 Jan 2015 (Local Time) from KSKA Reporting Station
Few Clouds Few Clouds  
Wind Chill: 46°   Ceiling: Unl
Heat Index: 49°   Visibility: 10mi
Dew Point: 49°   Wind: 7mph
Humidity: 100%   Direction: 220°SW
Pressure: 30.21"   Gusts: NA
Location:  47.411°N, 117.628°W
Report Text: KSKA 251958Z AUTO 22006KT 10SM FEW010 10/10 A3021 RMK AO2 SLP241 T00950095
Loading
Personal Weather Stations






























Interactive Weather Map New forecast layout! Learn more

10-Day Weather Forecast

Advertisements
Track Severe Weather on mobile